createdAt,value
2017-08-15T00:01:23.580Z,76.31
2017-08-15T00:03:52.610Z,76.07
2017-08-15T00:06:21.673Z,76.00
2017-08-15T00:08:50.716Z,75.87
2017-08-15T00:11:19.802Z,75.75
2017-08-15T00:13:48.855Z,75.57
2017-08-15T00:16:17.924Z,75.64
2017-08-15T00:18:46.996Z,75.73
2017-08-15T00:21:16.056Z,75.68
2017-08-15T00:23:45.135Z,75.51
2017-08-15T00:26:14.220Z,75.72
2017-08-15T00:28:43.265Z,75.80
2017-08-15T00:31:12.324Z,75.85
2017-08-15T00:33:41.379Z,76.09
2017-08-15T00:36:10.453Z,75.82
2017-08-15T00:38:39.522Z,75.74
2017-08-15T00:41:08.653Z,75.95
2017-08-15T00:43:37.720Z,76.11
2017-08-15T00:46:06.786Z,76.04
2017-08-15T00:48:35.826Z,75.86
2017-08-15T00:51:04.906Z,76.19
2017-08-15T00:53:33.973Z,75.83
2017-08-15T00:56:03.028Z,75.93
2017-08-15T00:58:32.068Z,76.19
2017-08-15T01:01:01.115Z,76.08
2017-08-15T01:03:30.204Z,76.22
2017-08-15T01:05:59.241Z,76.75
2017-08-15T01:08:28.448Z,76.83
2017-08-15T01:10:57.479Z,76.54
2017-08-15T01:13:26.559Z,76.33
2017-08-15T01:15:55.595Z,76.52
2017-08-15T01:18:24.640Z,76.12
2017-08-15T01:20:53.778Z,76.08
2017-08-15T01:23:22.830Z,75.71
2017-08-15T01:25:51.880Z,75.87
2017-08-15T01:28:20.919Z,76.07
2017-08-15T01:30:50.009Z,76.08
2017-08-15T01:33:19.048Z,76.39
2017-08-15T01:35:48.143Z,76.53
2017-08-15T01:38:17.192Z,76.73
2017-08-15T01:40:46.235Z,76.45
2017-08-15T01:43:15.291Z,76.18
2017-08-15T01:45:44.360Z,76.08
2017-08-15T01:48:13.439Z,75.87
2017-08-15T01:50:42.523Z,76.04
2017-08-15T01:53:11.554Z,75.91
2017-08-15T01:55:40.627Z,75.86
2017-08-15T01:58:09.724Z,75.85
2017-08-15T02:00:38.773Z,75.73
2017-08-15T02:03:08.025Z,75.79
2017-08-15T02:05:37.084Z,75.42
2017-08-15T02:08:06.193Z,75.56
2017-08-15T02:10:35.246Z,75.16
2017-08-15T02:13:04.393Z,75.25
2017-08-15T02:15:33.431Z,75.02
2017-08-15T02:18:02.504Z,74.92
2017-08-15T02:20:31.542Z,75.10
2017-08-15T02:23:00.591Z,75.29
2017-08-15T02:25:29.651Z,75.12
2017-08-15T02:27:58.712Z,75.22
2017-08-15T02:30:27.785Z,75.17
2017-08-15T02:32:56.855Z,75.16
2017-08-15T02:35:25.928Z,75.08
2017-08-15T02:37:54.985Z,74.97
2017-08-15T02:40:24.281Z,74.95
2017-08-15T02:42:53.348Z,74.89
2017-08-15T02:45:22.444Z,74.97
2017-08-15T02:47:51.539Z,74.66
2017-08-15T02:50:20.596Z,74.89
2017-08-15T02:52:49.684Z,74.65
2017-08-15T02:55:18.752Z,74.63
2017-08-15T02:57:47.824Z,74.64
2017-08-15T03:00:16.915Z,74.86
2017-08-15T03:02:45.940Z,74.46
2017-08-15T03:05:15.005Z,74.71
2017-08-15T03:07:44.127Z,74.71
2017-08-15T03:10:13.195Z,74.76
2017-08-15T03:12:42.292Z,74.78
2017-08-15T03:15:11.348Z,74.94
2017-08-15T03:17:40.445Z,75.19
2017-08-15T03:20:09.514Z,75.01
2017-08-15T03:22:38.609Z,75.25
2017-08-15T03:25:07.674Z,75.43
2017-08-15T03:27:36.731Z,75.59
2017-08-15T03:30:05.784Z,75.57
2017-08-15T03:32:34.866Z,75.72
2017-08-15T03:35:03.912Z,75.98
2017-08-15T03:37:32.967Z,76.12
2017-08-15T03:40:02.016Z,76.32
2017-08-15T03:42:31.085Z,76.59
2017-08-15T03:45:00.170Z,75.99
2017-08-15T03:47:29.246Z,76.09
2017-08-15T03:49:58.275Z,76.29
2017-08-15T03:52:27.332Z,76.35
2017-08-15T03:54:56.491Z,76.24
2017-08-15T03:57:25.568Z,76.29
2017-08-15T03:59:54.618Z,76.30
2017-08-15T04:02:24.043Z,76.48
2017-08-15T04:04:53.110Z,76.37
2017-08-15T04:07:22.173Z,76.64
2017-08-15T04:09:51.202Z,76.69
2017-08-15T04:12:20.290Z,76.82
2017-08-15T04:14:49.344Z,76.73
2017-08-15T04:17:18.391Z,76.70
2017-08-15T04:19:47.467Z,76.74
2017-08-15T04:22:16.516Z,76.94
2017-08-15T04:24:45.589Z,76.79
2017-08-15T04:27:14.671Z,76.83
2017-08-15T04:29:43.740Z,76.79
2017-08-15T04:32:12.856Z,77.00
2017-08-15T04:34:41.930Z,77.19
2017-08-15T04:37:11.000Z,77.18
2017-08-15T04:39:40.038Z,77.24
2017-08-15T04:42:09.149Z,77.45
2017-08-15T04:44:38.183Z,77.24
2017-08-15T04:47:07.280Z,77.60
2017-08-15T04:49:36.292Z,77.87
2017-08-15T04:52:05.370Z,77.97
2017-08-15T04:54:34.428Z,77.88
2017-08-15T04:57:03.539Z,77.84
2017-08-15T04:59:32.578Z,77.60
2017-08-15T05:02:01.632Z,77.93
2017-08-15T05:04:30.672Z,77.85
2017-08-15T05:06:59.741Z,77.95
2017-08-15T05:09:28.788Z,78.16
2017-08-15T05:11:57.883Z,77.86
2017-08-15T05:14:26.923Z,77.74
2017-08-15T05:16:55.973Z,77.74
2017-08-15T05:19:25.039Z,77.85
2017-08-15T05:21:54.114Z,77.68
2017-08-15T05:24:23.148Z,77.74
2017-08-15T05:26:52.226Z,77.93
2017-08-15T05:29:21.268Z,77.64
2017-08-15T05:31:50.312Z,77.80
2017-08-15T05:34:19.391Z,77.59
2017-08-15T05:36:48.443Z,77.64
2017-08-15T05:39:17.515Z,77.85
2017-08-15T05:41:46.598Z,77.64
2017-08-15T05:44:15.654Z,77.44
2017-08-15T05:46:44.703Z,77.47
2017-08-15T05:49:13.816Z,77.63
2017-08-15T05:51:42.890Z,77.53
2017-08-15T05:54:11.966Z,77.73
2017-08-15T05:56:41.006Z,77.76
2017-08-15T05:59:10.036Z,77.89
2017-08-15T06:01:39.111Z,77.80
2017-08-15T06:04:08.165Z,77.64
2017-08-15T06:06:37.201Z,77.36
2017-08-15T06:09:06.266Z,76.97
2017-08-15T06:11:35.340Z,76.95
2017-08-15T06:14:04.391Z,76.59
2017-08-15T06:16:33.444Z,76.16
2017-08-15T06:19:02.524Z,76.36
2017-08-15T06:21:31.606Z,75.95
2017-08-15T06:24:00.668Z,75.65
2017-08-15T06:26:29.733Z,74.96
2017-08-15T06:28:58.773Z,75.15
2017-08-15T06:31:27.832Z,74.93
2017-08-15T06:33:56.908Z,74.58
2017-08-15T06:36:25.958Z,73.58
2017-08-15T06:38:55.023Z,73.35
2017-08-15T06:41:24.077Z,73.05
2017-08-15T06:43:53.143Z,72.62
2017-08-15T06:46:22.200Z,72.02
2017-08-15T06:48:51.495Z,71.81
2017-08-15T06:51:20.564Z,71.89
2017-08-15T06:53:49.630Z,71.89
2017-08-15T06:56:18.675Z,71.79
2017-08-15T06:58:47.763Z,71.36
2017-08-15T07:01:16.836Z,71.25
2017-08-15T07:03:45.887Z,70.59
2017-08-15T07:06:15.176Z,69.16
2017-08-15T07:08:44.225Z,69.78
2017-08-15T07:11:13.360Z,68.79
2017-08-15T07:13:42.400Z,67.79
2017-08-15T07:16:11.468Z,67.82
2017-08-15T07:18:40.512Z,67.02
2017-08-15T07:21:09.585Z,66.84
2017-08-15T07:23:38.645Z,66.39
2017-08-15T07:26:07.697Z,65.75
2017-08-15T07:28:36.743Z,66.37
2017-08-15T07:31:05.815Z,65.88
2017-08-15T07:33:34.884Z,64.00
2017-08-15T07:36:03.951Z,64.64
2017-08-15T07:38:33.005Z,64.13
2017-08-15T07:41:02.064Z,64.24
2017-08-15T07:43:31.180Z,64.73
2017-08-15T07:46:00.210Z,62.78
2017-08-15T07:48:29.249Z,62.99
2017-08-15T07:50:58.328Z,62.54
2017-08-15T07:53:27.377Z,62.43
2017-08-15T07:55:56.419Z,62.95
2017-08-15T07:58:25.485Z,62.22
2017-08-15T08:00:54.555Z,61.25
2017-08-15T08:03:23.604Z,60.90
2017-08-15T08:05:52.677Z,60.77
2017-08-15T08:08:21.735Z,60.84
2017-08-15T08:10:50.979Z,61.17
2017-08-15T08:13:20.030Z,60.54
2017-08-15T08:15:49.072Z,60.98
2017-08-15T08:18:18.146Z,62.21
2017-08-15T08:20:47.192Z,61.19
2017-08-15T08:23:16.296Z,60.88
2017-08-15T08:25:45.376Z,59.60
2017-08-15T08:28:14.455Z,59.50
2017-08-15T08:30:43.495Z,59.93
2017-08-15T08:33:12.570Z,60.20
2017-08-15T08:35:41.608Z,59.84
2017-08-15T08:38:10.674Z,59.30
2017-08-15T08:40:39.748Z,59.06
2017-08-15T08:43:08.784Z,59.00
2017-08-15T08:45:37.833Z,57.86
2017-08-15T08:48:06.920Z,57.53
2017-08-15T08:50:35.973Z,56.81
2017-08-15T08:53:05.044Z,57.38
2017-08-15T08:55:34.125Z,58.21
2017-08-15T08:58:03.179Z,57.99
2017-08-15T09:00:32.224Z,56.68
2017-08-15T09:03:01.323Z,56.86
2017-08-15T09:05:30.407Z,57.34
2017-08-15T09:07:59.452Z,57.86
2017-08-15T09:10:28.569Z,58.05
2017-08-15T09:12:57.639Z,58.78
2017-08-15T09:15:26.703Z,56.57
2017-08-15T09:17:55.791Z,57.01
2017-08-15T09:20:24.858Z,56.67
2017-08-15T09:22:53.895Z,57.05
2017-08-15T09:25:22.955Z,58.41
2017-08-15T09:27:52.000Z,58.37
2017-08-15T09:30:21.104Z,57.82
2017-08-15T09:32:50.136Z,58.01
2017-08-15T09:35:19.253Z,57.58
2017-08-15T09:37:48.271Z,57.97
2017-08-15T09:40:17.338Z,58.29
2017-08-15T09:42:46.404Z,57.70
2017-08-15T09:45:15.506Z,57.20
2017-08-15T09:47:44.575Z,58.14
2017-08-15T09:50:13.628Z,56.76
2017-08-15T09:52:42.684Z,57.04
2017-08-15T09:55:11.740Z,58.56
2017-08-15T09:57:40.788Z,57.57
2017-08-15T10:00:09.867Z,58.78
2017-08-15T10:02:38.970Z,57.65
2017-08-15T10:05:08.136Z,57.69
2017-08-15T10:07:37.188Z,58.40
2017-08-15T10:10:06.249Z,57.92
2017-08-15T10:12:35.304Z,58.01
2017-08-15T10:15:04.412Z,58.30
2017-08-15T10:17:33.471Z,58.86
2017-08-15T10:20:02.575Z,58.83
2017-08-15T10:22:31.630Z,58.79
2017-08-15T10:25:00.702Z,59.69
2017-08-15T10:27:29.902Z,59.97
2017-08-15T10:29:58.965Z,60.21
2017-08-15T10:32:28.023Z,61.56
2017-08-15T10:34:57.052Z,61.01
2017-08-15T10:37:26.134Z,60.52
2017-08-15T10:39:55.200Z,60.98
2017-08-15T10:42:24.926Z,61.71
2017-08-15T10:44:53.987Z,61.84
2017-08-15T10:47:23.035Z,61.86
2017-08-15T10:49:52.090Z,62.58
2017-08-15T10:52:21.135Z,63.49
2017-08-15T10:54:50.202Z,63.86
2017-08-15T10:57:19.247Z,65.52
2017-08-15T10:59:48.320Z,65.75
2017-08-15T11:02:17.377Z,67.61
2017-08-15T11:04:46.447Z,68.65
2017-08-15T11:07:15.769Z,68.46
2017-08-15T11:09:44.849Z,68.86
2017-08-15T11:12:13.900Z,68.26
2017-08-15T11:14:42.934Z,68.72
2017-08-15T11:17:12.052Z,68.99
2017-08-15T11:19:41.061Z,68.96
2017-08-15T11:22:10.119Z,68.47
2017-08-15T11:24:39.213Z,69.10
2017-08-15T11:27:08.264Z,68.62
2017-08-15T11:29:37.333Z,67.99
2017-08-15T11:32:06.408Z,68.55
2017-08-15T11:34:35.456Z,68.21
2017-08-15T11:37:04.628Z,69.96
2017-08-15T11:39:33.685Z,67.55
2017-08-15T11:42:02.744Z,68.76
2017-08-15T11:44:31.787Z,67.97
2017-08-15T11:47:00.835Z,68.41
2017-08-15T11:49:29.884Z,68.01
2017-08-15T11:51:58.959Z,68.25
2017-08-15T11:54:28.032Z,68.00
2017-08-15T11:56:57.076Z,67.03
2017-08-15T11:59:26.148Z,67.10
2017-08-15T12:01:55.204Z,64.75
2017-08-15T12:04:24.295Z,65.08
2017-08-15T12:06:53.377Z,65.06
2017-08-15T12:09:22.466Z,63.34
2017-08-15T12:11:51.535Z,64.17
2017-08-15T12:14:20.579Z,62.81
2017-08-15T12:16:50.355Z,61.03
2017-08-15T12:19:19.381Z,61.47
2017-08-15T12:21:48.420Z,60.07
2017-08-15T12:24:17.484Z,60.03
2017-08-15T12:26:46.556Z,60.92
2017-08-15T12:29:15.646Z,61.51
2017-08-15T12:31:44.696Z,59.11
2017-08-15T12:34:13.768Z,59.43
2017-08-15T12:36:42.827Z,57.09
2017-08-15T12:39:11.881Z,57.38
2017-08-15T12:41:40.972Z,57.25
2017-08-15T12:44:10.027Z,56.47
2017-08-15T12:46:39.101Z,57.42
2017-08-15T12:49:08.156Z,55.55
2017-08-15T12:51:37.219Z,57.04
2017-08-15T12:54:06.285Z,57.88
2017-08-15T12:56:35.341Z,55.80
2017-08-15T12:59:04.387Z,55.27
2017-08-15T13:01:33.476Z,56.20
2017-08-15T13:04:02.549Z,55.74
2017-08-15T13:06:31.621Z,53.30
2017-08-15T13:09:00.687Z,54.68
2017-08-15T13:11:29.751Z,54.46
2017-08-15T13:13:58.816Z,54.87
2017-08-15T13:16:29.816Z,51.80
2017-08-15T13:19:01.845Z,53.77
2017-08-15T13:21:30.914Z,51.40
2017-08-15T13:23:59.947Z,53.22
2017-08-15T13:26:29.005Z,52.89
2017-08-15T13:28:58.080Z,53.49
2017-08-15T13:31:27.144Z,51.91
2017-08-15T13:33:56.210Z,53.32
2017-08-15T13:36:25.255Z,53.67
2017-08-15T13:38:54.325Z,53.45
2017-08-15T13:41:23.428Z,51.56
2017-08-15T13:43:52.453Z,51.79
2017-08-15T13:46:21.504Z,51.23
2017-08-15T13:48:50.548Z,48.06
2017-08-15T13:51:19.631Z,50.08
2017-08-15T13:53:48.699Z,48.98
2017-08-15T13:56:17.775Z,50.10
2017-08-15T13:58:46.815Z,48.93
2017-08-15T14:01:15.873Z,49.54
2017-08-15T14:03:44.944Z,48.68
2017-08-15T14:06:14.014Z,48.38
2017-08-15T14:08:43.073Z,49.30
2017-08-15T14:11:12.116Z,48.76
2017-08-15T14:13:41.192Z,49.69
2017-08-15T14:16:10.378Z,50.29
2017-08-15T14:18:39.415Z,50.83
2017-08-15T14:21:08.485Z,52.01
2017-08-15T14:23:37.526Z,53.89
2017-08-15T14:26:06.580Z,54.56
2017-08-15T14:28:35.624Z,53.26
2017-08-15T14:31:04.680Z,54.21
2017-08-15T14:33:33.761Z,56.18
2017-08-15T14:36:02.814Z,57.33
2017-08-15T14:38:31.855Z,56.27
2017-08-15T14:41:00.960Z,56.62
2017-08-15T14:43:30.004Z,56.62
2017-08-15T14:45:59.084Z,57.99
2017-08-15T14:48:28.136Z,57.62
2017-08-15T14:50:57.231Z,58.03
2017-08-15T14:53:26.267Z,56.64
2017-08-15T14:55:55.314Z,58.19
2017-08-15T14:58:24.412Z,58.26
2017-08-15T15:00:53.479Z,57.39
2017-08-15T15:03:22.536Z,58.70
2017-08-15T15:05:51.593Z,57.87
2017-08-15T15:08:20.642Z,58.16
2017-08-15T15:10:49.688Z,59.06
2017-08-15T15:13:18.788Z,58.32
2017-08-15T15:15:47.860Z,59.11
2017-08-15T15:18:16.916Z,59.33
2017-08-15T15:20:45.986Z,60.70
2017-08-15T15:23:15.074Z,59.87
2017-08-15T15:25:44.152Z,59.66
2017-08-15T15:28:13.417Z,59.71
2017-08-15T15:30:42.468Z,60.52
2017-08-15T15:33:11.554Z,60.04
2017-08-15T15:35:40.603Z,60.51
2017-08-15T15:38:09.707Z,60.50
2017-08-15T15:40:38.779Z,60.86
2017-08-15T15:43:07.842Z,61.16
2017-08-15T15:45:36.887Z,61.48
2017-08-15T15:48:05.980Z,61.24
2017-08-15T15:50:35.024Z,61.78
2017-08-15T15:53:04.143Z,61.79
2017-08-15T15:55:33.178Z,62.76
2017-08-15T15:58:02.241Z,62.41
2017-08-15T16:00:31.320Z,62.43
2017-08-15T16:03:00.360Z,62.86
2017-08-15T16:05:29.416Z,62.82
2017-08-15T16:07:58.504Z,63.33
2017-08-15T16:10:27.555Z,63.04
2017-08-15T16:12:56.621Z,62.75
2017-08-15T16:15:25.756Z,63.33
2017-08-15T16:17:54.825Z,63.51
2017-08-15T16:20:23.870Z,63.90
2017-08-15T16:22:52.954Z,64.14
2017-08-15T16:25:22.023Z,65.04
2017-08-15T16:27:51.080Z,66.00
2017-08-15T16:30:20.150Z,66.87
2017-08-15T16:32:49.252Z,67.09
2017-08-15T16:35:18.303Z,66.87
2017-08-15T16:37:47.425Z,67.48
2017-08-15T16:40:16.472Z,67.85
2017-08-15T16:42:45.569Z,67.86
2017-08-15T16:45:14.619Z,67.99
2017-08-15T16:47:43.695Z,68.49
2017-08-15T16:50:13.240Z,68.59
2017-08-15T16:52:42.260Z,69.40
2017-08-15T16:55:11.368Z,69.73
2017-08-15T16:57:40.429Z,70.08
2017-08-15T17:00:09.496Z,70.37
2017-08-15T17:02:38.550Z,70.90
2017-08-15T17:05:07.716Z,71.36
2017-08-15T17:07:36.756Z,71.68
2017-08-15T17:10:05.832Z,73.01
2017-08-15T17:12:34.880Z,73.79
2017-08-15T17:15:03.930Z,73.83
2017-08-15T17:17:33.004Z,74.53
2017-08-15T17:20:02.083Z,74.17
2017-08-15T17:22:31.136Z,75.07
2017-08-15T17:25:00.180Z,75.06
2017-08-15T17:27:29.340Z,75.25
2017-08-15T17:29:58.523Z,75.53
2017-08-15T17:32:27.553Z,76.09
2017-08-15T17:34:56.613Z,75.92
2017-08-15T17:37:25.712Z,75.91
2017-08-15T17:39:54.802Z,75.78
2017-08-15T17:42:24.304Z,75.75
2017-08-15T17:44:53.378Z,75.76
2017-08-15T17:47:22.427Z,75.99
2017-08-15T17:49:51.486Z,75.86
2017-08-15T17:52:20.568Z,75.88
2017-08-15T17:54:49.647Z,75.66
2017-08-15T17:57:18.716Z,75.64
2017-08-15T17:59:47.797Z,75.27
2017-08-15T18:02:16.854Z,75.29
2017-08-15T18:04:45.910Z,75.40
2017-08-15T18:07:15.012Z,75.23
2017-08-15T18:09:44.080Z,75.33
2017-08-15T18:12:13.121Z,75.43
2017-08-15T18:14:42.181Z,75.64
2017-08-15T18:17:11.267Z,75.89
2017-08-15T18:19:40.303Z,76.05
2017-08-15T18:22:09.421Z,75.72
2017-08-15T18:24:38.467Z,75.95
2017-08-15T18:27:07.549Z,76.08
2017-08-15T18:29:36.629Z,76.10
2017-08-15T18:32:05.691Z,75.89
2017-08-15T18:34:34.756Z,75.86
2017-08-15T18:37:03.841Z,76.32
2017-08-15T18:39:32.916Z,76.33
2017-08-15T18:42:01.964Z,76.48
2017-08-15T18:44:31.036Z,76.74
2017-08-15T18:47:00.073Z,76.73
2017-08-15T18:49:29.152Z,76.68
2017-08-15T18:51:58.232Z,76.91
2017-08-15T18:54:27.295Z,77.30
2017-08-15T18:56:56.381Z,77.05
2017-08-15T18:59:25.434Z,77.38
2017-08-15T19:01:54.492Z,77.13
2017-08-15T19:04:23.565Z,77.29
2017-08-15T19:06:53.227Z,77.43
2017-08-15T19:09:22.305Z,77.41
2017-08-15T19:11:51.372Z,77.47
2017-08-15T19:14:20.424Z,77.81
2017-08-15T19:16:49.584Z,77.79
2017-08-15T19:19:18.622Z,77.87
2017-08-15T19:21:47.717Z,77.70
2017-08-15T19:24:16.909Z,77.75
2017-08-15T19:26:45.985Z,77.94
2017-08-15T19:29:15.041Z,77.89
2017-08-15T19:31:44.136Z,77.75
2017-08-15T19:34:13.221Z,78.10
2017-08-15T19:36:42.292Z,78.06
2017-08-15T19:39:11.479Z,77.98
2017-08-15T19:41:40.622Z,77.86
2017-08-15T19:44:09.689Z,78.24
2017-08-15T19:46:38.768Z,77.66
2017-08-15T19:49:07.936Z,77.62
2017-08-15T19:51:37.015Z,77.72
2017-08-15T19:54:06.061Z,77.47
2017-08-15T19:56:35.230Z,77.40
2017-08-15T19:59:04.370Z,77.35
2017-08-15T20:01:33.470Z,77.34
2017-08-15T20:04:02.624Z,77.14
2017-08-15T20:06:31.695Z,77.44
2017-08-15T20:09:00.749Z,77.49
2017-08-15T20:11:29.822Z,77.45
2017-08-15T20:13:58.854Z,77.29
2017-08-15T20:16:27.925Z,77.30
2017-08-15T20:18:56.976Z,77.42
2017-08-15T20:21:26.051Z,77.25
2017-08-15T20:23:55.116Z,77.19
2017-08-15T20:26:24.189Z,77.55
2017-08-15T20:28:53.231Z,77.74
2017-08-15T20:31:22.312Z,77.85
2017-08-15T20:33:51.384Z,77.89
2017-08-15T20:36:20.453Z,77.86
2017-08-15T20:38:49.503Z,77.75
2017-08-15T20:41:18.583Z,78.05
2017-08-15T20:43:47.657Z,77.98
2017-08-15T20:46:16.714Z,77.98
2017-08-15T20:48:45.788Z,77.88
2017-08-15T20:51:14.860Z,77.74
2017-08-15T20:53:43.923Z,77.64
2017-08-15T20:56:13.000Z,77.76
2017-08-15T20:58:42.077Z,77.66
2017-08-15T21:01:11.185Z,77.77
2017-08-15T21:03:40.236Z,77.67
2017-08-15T21:06:09.305Z,77.73
2017-08-15T21:08:38.371Z,77.92
2017-08-15T21:11:07.720Z,77.89
2017-08-15T21:13:36.796Z,78.09
2017-08-15T21:16:05.856Z,78.52
2017-08-15T21:18:34.912Z,78.59
2017-08-15T21:21:03.997Z,78.60
2017-08-15T21:23:33.050Z,78.81
2017-08-15T21:26:02.134Z,78.92
2017-08-15T21:28:31.175Z,79.00
2017-08-15T21:31:00.230Z,78.78
2017-08-15T21:33:29.375Z,78.79
2017-08-15T21:35:58.443Z,78.76
2017-08-15T21:38:27.509Z,78.70
2017-08-15T21:40:56.552Z,78.76
2017-08-15T21:43:25.661Z,78.88
2017-08-15T21:45:54.735Z,78.85
2017-08-15T21:48:23.796Z,78.84
2017-08-15T21:50:52.886Z,79.18
2017-08-15T21:53:21.933Z,79.08
2017-08-15T21:55:51.047Z,79.23
2017-08-15T21:58:20.120Z,79.16
2017-08-15T22:00:54.613Z,79.41
2017-08-15T22:03:23.693Z,79.50
2017-08-15T22:05:52.812Z,79.63
2017-08-15T22:08:21.877Z,78.64
2017-08-15T22:10:50.937Z,78.81
2017-08-15T22:13:20.013Z,78.51
2017-08-15T22:15:49.072Z,78.58
2017-08-15T22:18:18.151Z,78.69
2017-08-15T22:20:47.239Z,78.58
2017-08-15T22:23:16.324Z,78.64
2017-08-15T22:25:45.388Z,78.67
2017-08-15T22:28:14.490Z,78.86
2017-08-15T22:30:43.562Z,79.07
2017-08-15T22:33:12.664Z,79.05
2017-08-15T22:35:41.747Z,78.96
2017-08-15T22:38:10.874Z,78.80
2017-08-15T22:40:39.924Z,78.36
2017-08-15T22:43:09.033Z,78.22
2017-08-15T22:45:38.117Z,77.95
2017-08-15T22:48:07.188Z,77.09
2017-08-15T22:50:36.257Z,77.19
2017-08-15T22:53:05.356Z,77.07
2017-08-15T22:55:34.428Z,76.77
2017-08-15T22:58:03.499Z,76.96
2017-08-15T23:00:32.587Z,77.29
2017-08-15T23:03:01.656Z,77.18
2017-08-15T23:05:30.699Z,77.33
2017-08-15T23:07:59.759Z,77.34
2017-08-15T23:10:28.825Z,77.46
2017-08-15T23:12:57.900Z,77.67
2017-08-15T23:15:26.968Z,77.92
2017-08-15T23:17:56.029Z,78.22
2017-08-15T23:20:25.094Z,79.15
2017-08-15T23:22:54.164Z,78.89
2017-08-15T23:25:23.486Z,78.74
2017-08-15T23:27:53.435Z,78.76
2017-08-15T23:30:22.495Z,78.92
2017-08-15T23:32:51.571Z,79.20
2017-08-15T23:35:20.635Z,78.35
2017-08-15T23:37:49.711Z,78.38
2017-08-15T23:40:18.791Z,77.58
2017-08-15T23:42:47.836Z,77.88
2017-08-15T23:45:17.461Z,78.16
2017-08-15T23:47:46.535Z,78.26
2017-08-15T23:50:15.618Z,78.15
2017-08-15T23:52:44.655Z,78.24
2017-08-15T23:55:13.771Z,78.44
2017-08-15T23:57:42.839Z,78.93
